Time;durP1;ratioP1;P1;durP2;ratioP2;P2;SDS_P1;SDS_P2;PMS_P1;PMS_P2;Temp;Humidity;BMP_temperature;BMP_pressure;BME280_temperature;BME280_humidity;BME280_pressure;Samples;Min_cycle;Max_cycle;Signal;HPM_P1;HPM_P2
2022/07/14 00:00:39;;;;;;;0.00;0.00;;;;;;;20.78;54.46;102226.66;5084090;28;20035;-75
2022/07/14 00:03:05;;;;;;;0.00;0.00;;;;;;;20.77;55.17;102224.88;5073235;28;20038;-77
2022/07/14 00:05:31;;;;;;;0.10;0.10;;;;;;;20.78;54.49;102223.94;5072342;28;20050;-77
2022/07/14 00:07:58;;;;;;;0.00;0.00;;;;;;;20.77;54.51;102227.59;5069556;28;20041;-77
2022/07/14 00:10:25;;;;;;;0.00;0.00;;;;;;;20.74;53.82;102235.81;5071191;28;20068;-77
2022/07/14 00:12:52;;;;;;;0.00;0.00;;;;;;;20.69;55.16;102238.63;5075970;28;20073;-77
2022/07/14 00:15:18;;;;;;;0.10;0.10;;;;;;;20.66;55.83;102242.34;5077949;28;20032;-77
2022/07/14 00:17:44;;;;;;;0.00;0.00;;;;;;;20.67;54.87;102240.50;5072840;28;20036;-77
2022/07/14 00:20:11;;;;;;;0.10;0.10;;;;;;;20.68;55.46;102237.75;5073148;28;20036;-77
2022/07/14 00:22:37;;;;;;;0.00;0.00;;;;;;;20.69;56.10;102247.59;5071270;28;20489;-77
2022/07/14 00:25:03;;;;;;;0.00;0.00;;;;;;;20.71;55.02;102242.19;5072948;28;20086;-76
2022/07/14 00:27:29;;;;;;;0.00;0.00;;;;;;;20.66;54.55;102244.13;5076089;28;20119;-77
2022/07/14 00:29:56;;;;;;;0.00;0.00;;;;;;;20.62;54.20;102237.13;5073117;28;20043;-77
2022/07/14 00:32:22;;;;;;;0.05;0.05;;;;;;;20.56;54.77;102240.06;5069411;28;20033;-77
2022/07/14 00:34:48;;;;;;;0.00;0.00;;;;;;;20.52;55.29;102236.63;5075187;28;20161;-77
2022/07/14 00:37:14;;;;;;;0.00;0.00;;;;;;;20.46;55.27;102231.47;5080643;28;20032;-77
2022/07/14 00:39:55;;;;;;;0.00;0.00;;;;;;;20.40;54.72;102237.09;5074880;28;20032;-77
2022/07/14 00:42:45;;;;;;;0.00;0.00;;;;;;;20.39;54.47;102238.03;5056972;28;20032;-76
2022/07/14 00:45:14;;;;;;;0.05;0.05;;;;;;;20.23;55.14;102246.72;5069245;28;20040;-77
2022/07/14 00:47:42;;;;;;;0.00;0.00;;;;;;;20.17;54.77;102239.75;5074288;28;20487;-77
2022/07/14 00:50:10;;;;;;;0.00;0.00;;;;;;;20.14;55.61;102237.19;5071660;28;20059;-77
2022/07/14 00:52:36;;;;;;;0.00;0.00;;;;;;;20.12;55.92;102239.03;5068970;28;20036;-77
2022/07/14 00:55:03;;;;;;;0.40;0.40;;;;;;;20.09;55.32;102241.88;5072460;28;20056;-77
2022/07/14 00:57:29;;;;;;;0.00;0.00;;;;;;;20.06;55.32;102249.16;5073041;28;20522;-77
2022/07/14 00:59:56;;;;;;;0.35;0.35;;;;;;;20.04;57.55;102242.03;5065041;28;20115;-77
2022/07/14 01:02:22;;;;;;;0.00;0.00;;;;;;;20.03;56.00;102248.34;5073048;28;20033;-77
2022/07/14 01:04:50;;;;;;;0.38;0.38;;;;;;;20.02;56.13;102248.41;5072039;28;20515;-77
2022/07/14 01:07:18;;;;;;;0.00;0.00;;;;;;;19.99;56.21;102244.03;5078599;28;20024;-77
2022/07/14 01:09:45;;;;;;;0.03;0.03;;;;;;;19.95;56.41;102241.50;5072587;28;20044;-76
2022/07/14 01:12:13;;;;;;;0.00;0.00;;;;;;;19.96;57.47;102251.31;5071412;28;20377;-77
2022/07/14 01:14:41;;;;;;;0.05;0.05;;;;;;;19.96;57.46;102254.00;5076765;28;20107;-77
2022/07/14 01:17:08;;;;;;;0.00;0.00;;;;;;;19.97;56.94;102253.94;5072087;28;20017;-77
2022/07/14 01:19:34;;;;;;;0.00;0.00;;;;;;;20.01;56.86;102257.41;5081016;28;20043;-78
2022/07/14 01:22:01;;;;;;;0.00;0.00;;;;;;;20.00;57.80;102245.78;5072887;28;20051;-76
2022/07/14 01:24:28;;;;;;;0.05;0.05;;;;;;;19.99;57.73;102254.78;5075872;28;20036;-77
2022/07/14 01:26:55;;;;;;;0.63;0.63;;;;;;;19.98;57.59;102242.25;5082382;28;20024;-77
2022/07/14 01:29:22;;;;;;;0.00;0.00;;;;;;;19.97;58.68;102250.41;5081895;28;20377;-77
2022/07/14 01:31:48;;;;;;;0.17;0.17;;;;;;;19.97;58.97;102251.25;5069517;28;20031;-77
2022/07/14 01:34:14;;;;;;;0.00;0.00;;;;;;;19.98;58.02;102247.63;5062421;28;20048;-77
2022/07/14 01:36:40;;;;;;;0.00;0.00;;;;;;;19.98;57.85;102261.09;5079127;28;20119;-77
2022/07/14 01:39:06;;;;;;;0.00;0.00;;;;;;;20.00;58.40;102256.53;5076196;28;20455;-77
2022/07/14 01:41:33;;;;;;;0.00;0.00;;;;;;;19.99;57.07;102254.78;5076700;28;20114;-77
2022/07/14 01:44:01;;;;;;;0.10;0.10;;;;;;;19.97;58.55;102259.31;5080878;28;20437;-77
2022/07/14 01:46:27;;;;;;;0.00;0.00;;;;;;;19.98;58.06;102255.72;5085674;28;20112;-77
2022/07/14 01:48:53;;;;;;;0.00;0.00;;;;;;;19.96;58.10;102265.66;5077712;28;20036;-77
2022/07/14 01:51:20;;;;;;;0.20;0.20;;;;;;;19.94;58.52;102262.16;5072328;28;20448;-77
2022/07/14 01:53:47;;;;;;;0.00;0.00;;;;;;;19.94;58.78;102267.53;5071868;28;20111;-77
2022/07/14 01:56:13;;;;;;;0.00;0.00;;;;;;;19.95;59.04;102254.94;5080975;28;20028;-77
2022/07/14 01:58:39;;;;;;;0.00;0.00;;;;;;;19.92;59.09;102253.25;5066037;28;20049;-77
2022/07/14 02:01:44;;;;;;;0.25;0.25;;;;;;;19.93;58.97;102252.31;5086323;28;20028;-77
2022/07/14 02:04:00;;;;;;;0.25;0.25;;;;;;;19.86;59.04;102249.00;5070805;28;20039;-77
2022/07/14 02:06:26;;;;;;;0.10;0.10;;;;;;;19.85;59.39;102251.72;5073999;28;20056;-77
2022/07/14 02:08:52;;;;;;;0.05;0.05;;;;;;;19.83;59.19;102248.22;5089757;28;20078;-77
2022/07/14 02:14:04;;;;;;;0.00;0.00;;;;;;;19.80;59.07;102238.41;5082719;28;20496;-77
2022/07/14 02:16:31;;;;;;;0.00;0.00;;;;;;;19.78;59.16;102242.09;5087147;28;20111;-77
2022/07/14 02:18:58;;;;;;;0.00;0.00;;;;;;;19.76;59.04;102238.59;5083054;28;20120;-77
2022/07/14 02:21:25;;;;;;;0.00;0.00;;;;;;;19.74;59.40;102241.34;5079244;28;20373;-77
2022/07/14 02:23:51;;;;;;;0.00;0.00;;;;;;;19.71;58.77;102239.63;5073920;28;20400;-77
2022/07/14 02:26:18;;;;;;;0.17;0.17;;;;;;;19.67;59.15;102232.59;5084898;28;20031;-77
2022/07/14 02:28:44;;;;;;;0.00;0.00;;;;;;;19.63;59.26;102228.28;5081282;28;20059;-77
2022/07/14 02:31:10;;;;;;;0.00;0.00;;;;;;;19.60;58.72;102231.09;5080327;28;20036;-77
2022/07/14 02:33:37;;;;;;;0.52;0.52;;;;;;;19.60;59.20;102224.81;5078671;28;20423;-77
2022/07/14 02:36:04;;;;;;;0.10;0.10;;;;;;;19.57;59.42;102215.03;5086916;28;20445;-76
2022/07/14 02:38:31;;;;;;;0.00;0.00;;;;;;;19.56;59.51;102224.94;5084430;28;20028;-76
2022/07/14 02:40:57;;;;;;;0.00;0.00;;;;;;;19.56;59.64;102218.66;5073904;28;20035;-77
2022/07/14 02:43:23;;;;;;;1.08;0.25;;;;;;;19.55;59.34;102216.91;5072390;28;20041;-77
2022/07/14 02:45:49;;;;;;;0.00;0.00;;;;;;;19.53;59.46;102219.66;5086186;28;20051;-77
2022/07/14 02:48:16;;;;;;;0.10;0.10;;;;;;;19.51;59.40;102234.09;5095818;22;20056;-77
2022/07/14 02:50:42;;;;;;;0.00;0.00;;;;;;;19.50;59.54;102230.53;5090494;28;20032;-78
2022/07/14 02:53:09;;;;;;;0.10;0.10;;;;;;;19.49;59.16;102233.25;5090037;28;20032;-77
2022/07/14 02:55:36;;;;;;;0.00;0.00;;;;;;;19.48;59.17;102229.69;5093446;28;20032;-77
2022/07/14 02:58:04;;;;;;;0.00;0.00;;;;;;;19.43;59.62;102225.41;5095772;28;20120;-77
2022/07/14 03:00:30;;;;;;;0.08;0.08;;;;;;;19.42;59.56;102223.66;5108622;28;20478;-77
2022/07/14 03:02:58;;;;;;;0.75;0.75;;;;;;;19.37;59.93;102227.38;5100395;28;20051;-77
2022/07/14 03:05:24;;;;;;;0.10;0.10;;;;;;;19.36;59.95;102228.31;5097092;28;20032;-78
2022/07/14 03:07:51;;;;;;;0.10;0.10;;;;;;;19.33;59.71;102217.69;5099342;28;20120;-80
2022/07/14 03:10:17;;;;;;;0.00;0.00;;;;;;;19.29;59.49;102224.09;5100522;28;20051;-77
2022/07/14 03:12:44;;;;;;;0.00;0.00;;;;;;;19.24;59.62;102228.75;5110548;28;20080;-78
2022/07/14 03:15:11;;;;;;;0.00;0.00;;;;;;;19.27;59.90;102227.78;5100177;28;20031;-78
2022/07/14 03:17:38;;;;;;;0.00;0.00;;;;;;;19.26;60.16;102221.50;5101240;28;20043;-77
2022/07/14 03:20:06;;;;;;;0.00;0.00;;;;;;;19.29;59.64;102220.50;5104455;28;20020;-78
2022/07/14 03:22:33;;;;;;;0.00;0.00;;;;;;;19.27;60.01;102217.03;5105072;28;20085;-77
2022/07/14 03:24:59;;;;;;;0.00;0.00;;;;;;;19.26;59.96;102218.81;5096591;28;20055;-78
2022/07/14 03:27:25;;;;;;;0.00;0.00;;;;;;;19.26;59.67;102224.19;5102034;28;20031;-78
2022/07/14 03:29:51;;;;;;;0.10;0.10;;;;;;;19.23;59.69;102224.31;5111176;28;20054;-77
2022/07/14 03:32:18;;;;;;;0.10;0.10;;;;;;;19.18;59.54;102210.16;5113264;28;20047;-78
2022/07/14 03:34:44;;;;;;;0.00;0.00;;;;;;;19.16;59.63;102209.31;5100578;28;20024;-78
2022/07/14 03:37:10;;;;;;;0.00;0.00;;;;;;;19.17;59.85;102213.78;5096559;28;20032;-76
2022/07/14 03:39:37;;;;;;;0.10;0.10;;;;;;;19.15;59.47;102210.25;5109197;28;20372;-78
2022/07/14 03:42:03;;;;;;;0.10;0.10;;;;;;;19.14;59.78;102208.50;5105517;28;20028;-78
2022/07/14 03:44:29;;;;;;;0.00;0.00;;;;;;;19.14;59.91;102205.81;5099420;28;20077;-78
2022/07/14 03:46:55;;;;;;;0.00;0.00;;;;;;;19.11;59.15;102203.25;5101414;28;20134;-77
2022/07/14 03:49:21;;;;;;;0.00;0.00;;;;;;;19.07;59.40;102200.63;5105432;28;20039;-78
2022/07/14 03:51:48;;;;;;;0.10;0.10;;;;;;;19.08;60.29;102204.22;5104355;28;20103;-79
2022/07/14 03:54:14;;;;;;;0.00;0.00;;;;;;;19.07;60.30;102208.69;5095708;28;20044;-76
2022/07/14 03:56:41;;;;;;;0.10;0.10;;;;;;;19.11;59.91;102206.78;5099718;28;20190;-77
2022/07/14 03:59:07;;;;;;;0.10;0.10;;;;;;;19.14;60.37;102211.19;5104816;28;20033;-78
2022/07/14 04:01:34;;;;;;;0.00;0.00;;;;;;;19.14;59.72;102212.06;5104007;28;20482;-78
2022/07/14 04:04:00;;;;;;;0.00;0.00;;;;;;;19.10;60.21;102215.78;5101050;28;20040;-78
2022/07/14 04:06:27;;;;;;;0.10;0.10;;;;;;;19.13;59.65;102212.09;5095030;28;20505;-78
2022/07/14 04:08:54;;;;;;;0.00;0.00;;;;;;;19.14;60.00;102205.81;5108762;28;20043;-77
2022/07/14 04:11:23;;;;;;;0.03;0.03;;;;;;;19.20;60.13;102200.22;5096563;28;20035;-78
2022/07/14 04:13:49;;;;;;;0.60;0.60;;;;;;;19.17;60.29;102205.72;5097734;28;20032;-78
2022/07/14 04:16:15;;;;;;;0.13;0.13;;;;;;;19.16;59.30;102203.94;5105515;28;20031;-78
2022/07/14 04:18:42;;;;;;;0.10;0.10;;;;;;;19.12;59.78;102203.19;5085646;28;20024;-78
2022/07/14 04:21:08;;;;;;;0.10;0.10;;;;;;;19.15;60.36;102215.63;5107173;28;20073;-78
2022/07/14 04:23:35;;;;;;;0.00;0.00;;;;;;;19.16;60.23;102214.69;5103718;28;20038;-76
2022/07/14 04:26:02;;;;;;;0.00;0.00;;;;;;;19.16;60.60;102214.69;5105204;28;20042;-78
2022/07/14 04:28:28;;;;;;;0.10;0.10;;;;;;;19.19;60.48;102209.22;5099106;28;20057;-79
2022/07/14 04:30:54;;;;;;;0.40;0.40;;;;;;;19.20;60.03;102213.66;5103971;28;20035;-81
2022/07/14 04:33:21;;;;;;;0.10;0.10;;;;;;;19.22;59.88;102209.13;5100805;28;20537;-78
2022/07/14 04:35:48;;;;;;;0.10;0.10;;;;;;;19.22;60.43;102211.81;5110301;28;20028;-78
2022/07/14 04:38:14;;;;;;;0.40;0.40;;;;;;;19.23;60.17;102210.88;5107607;28;20035;-79
2022/07/14 04:40:56;;;;;;;0.10;0.10;;;;;;;19.28;60.33;102208.00;5098452;28;20039;-78
2022/07/14 04:43:22;;;;;;;0.10;0.10;;;;;;;19.23;60.78;102210.88;5104965;28;20120;-79
2022/07/14 04:45:48;;;;;;;0.00;0.00;;;;;;;19.27;60.64;102203.59;5102148;28;20032;-79
2022/07/14 04:48:15;;;;;;;0.10;0.10;;;;;;;19.31;60.40;102206.09;5102706;28;20035;-78
2022/07/14 04:53:27;;;;;;;0.05;0.05;;;;;;;19.34;59.43;102207.78;5103140;28;20115;-78
2022/07/14 04:55:53;;;;;;;0.00;0.00;;;;;;;19.34;59.91;102205.09;5094074;28;20395;-77
2022/07/14 04:58:20;;;;;;;0.10;0.10;;;;;;;19.35;59.39;102215.81;5110192;28;20033;-76
2022/07/14 05:00:46;;;;;;;0.05;0.05;;;;;;;19.34;60.05;102208.69;5101451;28;20034;-78
2022/07/14 05:03:12;;;;;;;3.10;1.38;;;;;;;19.37;60.26;102205.88;5101436;28;20032;-78
2022/07/14 05:05:39;;;;;;;0.00;0.00;;;;;;;19.40;59.93;102192.34;5104321;28;20052;-78
2022/07/14 05:08:06;;;;;;;0.00;0.00;;;;;;;19.42;60.37;102194.09;5097863;28;20032;-76
2022/07/14 05:10:32;;;;;;;0.00;0.00;;;;;;;19.45;59.81;102193.97;5109090;28;20130;-76
2022/07/14 05:12:58;;;;;;;0.03;0.03;;;;;;;19.45;60.03;102207.41;5104028;28;20114;-77
2022/07/14 05:15:24;;;;;;;0.10;0.10;;;;;;;19.43;59.32;102207.47;5100391;28;20031;-76
2022/07/14 05:17:50;;;;;;;0.35;0.35;;;;;;;19.40;59.77;102208.47;5101131;28;20032;-78
2022/07/14 05:20:16;;;;;;;0.10;0.10;;;;;;;19.38;60.20;102204.94;5094772;28;20099;-77
2022/07/14 05:22:43;;;;;;;0.10;0.10;;;;;;;19.38;59.77;102199.56;5092048;28;20023;-79
2022/07/14 05:25:11;;;;;;;0.00;0.00;;;;;;;19.34;59.61;102192.56;5097670;28;20028;-78
2022/07/14 05:27:38;;;;;;;0.00;0.00;;;;;;;19.32;59.56;102199.78;5092430;28;20110;-78
2022/07/14 05:30:07;;;;;;;0.00;0.00;;;;;;;19.31;60.52;102199.84;5093300;28;20032;-78
2022/07/14 05:32:35;;;;;;;0.00;0.00;;;;;;;19.34;60.06;102197.03;5091250;28;20028;-78
2022/07/14 05:35:01;;;;;;;0.13;0.13;;;;;;;19.37;59.98;102211.25;5086085;28;20039;-77
2022/07/14 05:37:28;;;;;;;0.10;0.10;;;;;;;19.39;59.77;102206.72;5098246;28;20032;-78
2022/07/14 05:39:54;;;;;;;0.10;0.10;;;;;;;19.40;59.67;102213.84;5106434;28;20043;-77
2022/07/14 05:42:21;;;;;;;0.00;0.00;;;;;;;19.44;59.47;102221.78;5096432;28;20115;-79
2022/07/14 05:44:48;;;;;;;0.05;0.05;;;;;;;19.44;59.11;102224.47;5096782;28;20493;-79
2022/07/14 05:47:14;;;;;;;0.08;0.08;;;;;;;19.45;58.76;102227.13;5096397;28;20513;-80
2022/07/14 05:49:41;;;;;;;0.00;0.00;;;;;;;19.50;59.15;102230.53;5105422;28;20032;-79
2022/07/14 05:52:10;;;;;;;0.08;0.08;;;;;;;19.61;58.83;102232.81;5098996;28;20390;-80
2022/07/14 05:54:36;;;;;;;0.03;0.03;;;;;;;19.80;58.95;102237.53;5102302;28;20033;-81
2022/07/14 05:57:03;;;;;;;0.00;0.00;;;;;;;19.95;58.55;102238.81;5104903;28;20416;-80
2022/07/14 05:59:29;;;;;;;0.00;0.00;;;;;;;20.04;57.69;102236.66;5100766;28;20056;-78
2022/07/14 06:01:55;;;;;;;0.00;0.00;;;;;;;20.08;57.58;102231.16;5096916;28;20792;-77
2022/07/14 06:04:21;;;;;;;0.00;0.00;;;;;;;20.06;57.74;102230.34;5093700;28;20379;-79
2022/07/14 06:06:48;;;;;;;0.00;0.00;;;;;;;20.06;57.61;102227.66;5096300;28;20040;-78
2022/07/14 06:09:15;;;;;;;0.00;0.00;;;;;;;20.02;57.82;102225.06;5098099;28;20093;-79
2022/07/14 06:11:42;;;;;;;0.10;0.10;;;;;;;20.01;57.71;102226.03;5096365;28;20516;-77
2022/07/14 06:14:09;;;;;;;0.10;0.10;;;;;;;19.98;57.74;102226.13;5096250;28;20034;-80
2022/07/14 06:16:35;;;;;;;0.10;0.10;;;;;;;19.98;57.76;102220.75;5096287;28;20225;-79
2022/07/14 06:19:01;;;;;;;0.10;0.10;;;;;;;20.01;57.61;102231.41;5096824;28;20087;-77
2022/07/14 06:21:27;;;;;;;0.10;0.10;;;;;;;20.02;57.80;102226.88;5096277;28;20085;-77
2022/07/14 06:23:54;;;;;;;0.00;0.00;;;;;;;20.04;57.91;102231.25;5095257;28;20066;-79
2022/07/14 06:26:20;;;;;;;0.20;0.20;;;;;;;20.05;57.93;102221.41;5095447;28;20025;-78
2022/07/14 06:28:46;;;;;;;0.05;0.05;;;;;;;20.09;58.00;102224.81;5095406;28;20120;-80
2022/07/14 06:31:13;;;;;;;0.10;0.10;;;;;;;20.15;57.50;102222.78;5094271;28;20032;-80
2022/07/14 06:33:39;;;;;;;0.10;0.10;;;;;;;20.18;57.38;102219.09;5094367;28;20066;-82
2022/07/14 06:36:08;;;;;;;0.10;0.10;;;;;;;20.20;57.28;102209.19;5095179;28;20028;-79
2022/07/14 06:38:34;;;;;;;0.10;0.10;;;;;;;20.24;57.55;102202.72;5094757;28;20024;-82
2022/07/14 06:41:01;;;;;;;0.00;0.00;;;;;;;20.29;57.23;102206.09;5093658;28;20042;-81
2022/07/14 06:43:27;;;;;;;0.03;0.03;;;;;;;20.33;57.68;102214.94;5095927;28;20028;-82
2022/07/14 06:45:53;;;;;;;0.10;0.10;;;;;;;20.38;56.92;102212.06;5095948;28;20038;-80
2022/07/14 06:48:21;;;;;;;0.25;0.25;;;;;;;20.40;56.80;102204.78;5095945;28;20047;-82
2022/07/14 06:50:47;;;;;;;0.10;0.10;;;;;;;20.38;57.15;102190.53;5096360;28;20508;-82
2022/07/14 06:53:13;;;;;;;0.10;0.10;;;;;;;20.44;56.80;102188.47;5096993;28;20036;-82
2022/07/14 06:55:40;;;;;;;0.22;0.22;;;;;;;20.44;57.09;102191.16;5097673;28;20138;-82
2022/07/14 06:58:06;;;;;;;0.20;0.20;;;;;;;20.48;56.83;102183.84;5095472;28;20036;-80
2022/07/14 07:00:32;;;;;;;0.10;0.10;;;;;;;20.56;57.38;102178.13;5096713;28;20043;-80
2022/07/14 07:02:58;;;;;;;0.30;0.30;;;;;;;20.60;56.95;102175.25;5096356;28;20027;-79
2022/07/14 07:08:12;;;;;;;0.10;0.10;;;;;;;20.73;56.25;102164.03;5095761;28;20066;-80
2022/07/14 07:10:40;;;;;;;0.25;0.25;;;;;;;20.75;56.23;102167.50;5096999;28;20039;-82
2022/07/14 07:13:08;;;;;;;0.10;0.10;;;;;;;20.80;56.24;102165.53;5096986;28;20024;-80
2022/07/14 07:15:37;;;;;;;0.10;0.10;;;;;;;20.84;56.53;102170.69;5097314;28;20059;-81
2022/07/14 07:18:06;;;;;;;0.00;0.00;;;;;;;20.87;56.12;102161.59;5096140;28;20067;-81
2022/07/14 07:20:34;;;;;;;0.10;0.10;;;;;;;20.94;56.13;102168.47;5095804;28;20032;-82
2022/07/14 07:23:01;;;;;;;0.10;0.10;;;;;;;20.97;56.22;102168.38;5096803;28;20371;-82
2022/07/14 07:25:27;;;;;;;0.05;0.05;;;;;;;21.11;55.58;102172.25;5097104;28;20396;-80
2022/07/14 07:27:54;;;;;;;0.08;0.08;;;;;;;21.22;55.25;102170.00;5096055;28;20111;-81
2022/07/14 07:30:20;;;;;;;0.10;0.10;;;;;;;21.33;54.65;102167.72;5096895;28;20164;-81
2022/07/14 07:32:46;;;;;;;0.05;0.05;;;;;;;21.47;54.93;102166.19;5096530;28;20080;-81
2022/07/14 07:35:12;;;;;;;0.08;0.08;;;;;;;21.56;54.93;102171.22;5097655;28;20032;-81
2022/07/14 07:37:39;;;;;;;0.10;0.10;;;;;;;21.68;54.40;102169.75;5096119;28;20273;-82
2022/07/14 07:40:08;;;;;;;0.10;0.10;;;;;;;21.78;53.86;102170.22;5096376;28;20028;-80
2022/07/14 07:42:34;;;;;;;0.10;0.10;;;;;;;21.92;54.13;102164.19;5096549;28;20062;-82
2022/07/14 07:45:00;;;;;;;0.08;0.08;;;;;;;22.05;54.13;102161.78;5097360;28;20397;-81
2022/07/14 07:47:27;;;;;;;0.15;0.15;;;;;;;22.16;53.65;102158.56;5095932;28;20031;-82
2022/07/14 07:49:53;;;;;;;0.00;0.00;;;;;;;22.26;52.06;102159.88;5096057;28;20383;-79
2022/07/14 07:52:21;;;;;;;0.00;0.00;;;;;;;22.35;52.69;102167.53;5096638;28;20115;-80
2022/07/14 07:54:48;;;;;;;0.00;0.00;;;;;;;22.47;52.52;102168.78;5097285;28;20049;-80
2022/07/14 07:57:14;;;;;;;0.00;0.00;;;;;;;22.54;52.04;102175.66;5090672;28;20028;-80
2022/07/14 07:59:40;;;;;;;0.32;0.32;;;;;;;22.53;52.52;102171.19;5091413;28;20055;-82
2022/07/14 08:02:09;;;;;;;0.00;0.00;;;;;;;22.57;52.14;102170.06;5089634;28;20509;-81
2022/07/14 08:04:35;;;;;;;0.10;0.10;;;;;;;22.57;52.27;102170.06;5092227;28;20024;-81
2022/07/14 08:07:02;;;;;;;0.30;0.30;;;;;;;22.60;51.70;102163.66;5092391;28;20040;-80
2022/07/14 08:09:31;;;;;;;0.00;0.00;;;;;;;22.62;51.13;102167.16;5089890;28;20036;-81
2022/07/14 08:11:57;;;;;;;0.10;0.10;;;;;;;22.57;50.92;102158.41;5092240;28;20028;-81
2022/07/14 08:14:54;;;;;;;0.15;0.15;;;;;;;22.58;51.62;102169.13;5093580;28;20051;-82
2022/07/14 08:17:10;;;;;;;0.05;0.05;;;;;;;22.55;50.60;102166.56;5093601;28;20035;-82
2022/07/14 08:19:37;;;;;;;0.10;0.10;;;;;;;22.54;50.94;102164.84;5091645;28;20427;-80
2022/07/14 08:22:03;;;;;;;0.15;0.15;;;;;;;22.59;51.35;102165.47;5093005;28;20390;-82
2022/07/14 08:24:29;;;;;;;0.57;0.57;;;;;;;22.59;50.14;102162.78;5093232;28;20024;-82
2022/07/14 08:26:55;;;;;;;0.30;0.30;;;;;;;22.64;50.55;102164.38;5093408;28;20071;-83
2022/07/14 08:29:22;;;;;;;0.00;0.00;;;;;;;22.58;49.73;102155.63;5091486;28;20028;-82
2022/07/14 08:31:48;;;;;;;0.30;0.30;;;;;;;22.59;50.07;102151.97;5084365;28;20035;-82
2022/07/14 08:34:15;;;;;;;0.03;0.03;;;;;;;22.61;49.52;102154.59;5093442;28;20052;-82
2022/07/14 08:36:41;;;;;;;0.10;0.10;;;;;;;22.72;50.27;102151.38;5095343;28;20051;-82
2022/07/14 08:39:10;;;;;;;0.10;0.10;;;;;;;22.76;48.75;102147.53;5090857;28;20083;-82
2022/07/14 08:41:37;;;;;;;0.00;0.00;;;;;;;22.80;49.39;102149.13;5085774;28;20043;-83
2022/07/14 08:44:04;;;;;;;0.10;0.10;;;;;;;22.85;47.72;102159.72;5086711;28;20489;-83
2022/07/14 08:46:36;;;;;;;0.28;0.28;;;;;;;22.95;49.02;102150.16;5098588;22;20764;-83
2022/07/14 08:49:06;;;;;;;0.00;0.00;;;;;;;23.01;47.80;102157.09;5092821;28;20043;-83
2022/07/14 08:51:36;;;;;;;0.03;0.03;;;;;;;23.08;48.64;102158.53;5094493;28;20028;-83
2022/07/14 08:54:03;;;;;;;0.00;0.00;;;;;;;23.14;48.79;102157.31;5095725;28;20056;-84
2022/07/14 08:56:30;;;;;;;0.00;0.00;;;;;;;23.24;48.63;102147.78;5094533;28;20032;-83
2022/07/14 08:58:56;;;;;;;0.00;0.00;;;;;;;23.35;48.29;102149.94;5072199;28;20035;-83
2022/07/14 09:01:26;;;;;;;0.10;0.10;;;;;;;23.43;48.48;102147.69;5064485;28;20047;-82
2022/07/14 09:03:53;;;;;;;0.05;0.05;;;;;;;23.50;47.69;102153.66;5075957;28;20029;-84
2022/07/14 09:09:22;;;;;;;0.00;0.00;;;;;;;23.62;47.53;102149.41;5110626;27;1205256;-84
2022/07/14 09:11:52;;;;;;;0.03;0.03;;;;;;;23.73;47.83;102157.81;5122862;28;20027;-83
2022/07/14 09:14:19;;;;;;;0.00;0.00;;;;;;;23.81;47.62;102155.53;5117422;27;20032;-83
2022/07/14 09:16:45;;;;;;;0.00;0.00;;;;;;;23.88;47.25;102154.25;5113048;28;20024;-82
2022/07/14 09:19:13;;;;;;;0.00;0.00;;;;;;;23.99;46.75;102150.97;5114772;28;20051;-83
2022/07/14 09:21:45;;;;;;;0.00;0.00;;;;;;;24.10;46.45;102150.38;5119182;27;20023;-83
2022/07/14 09:24:14;;;;;;;0.00;0.00;;;;;;;24.25;47.11;102151.34;5120682;28;20483;-83
2022/07/14 09:29:23;;;;;;;0.00;0.00;;;;;;;24.57;45.63;102145.00;5092538;27;1197166;-80
2022/07/14 09:31:49;;;;;;;0.00;0.00;;;;;;;24.68;45.47;102143.44;5116893;27;20027;-81
2022/07/14 09:34:33;;;;;;;0.28;0.28;;;;;;;24.86;44.17;102146.88;5109915;27;20024;-82
2022/07/14 09:37:16;;;;;;;3.55;1.10;;;;;;;24.92;41.46;102150.19;5114396;28;20386;-80
2022/07/14 09:39:59;;;;;;;0.52;0.52;;;;;;;24.94;40.30;102145.56;5102438;28;20048;-80
2022/07/14 09:45:41;;;;;;;0.00;0.00;;;;;;;24.97;41.98;102140.84;5096159;27;20393;-82
2022/07/14 09:48:13;;;;;;;0.08;0.08;;;;;;;25.06;43.42;102136.69;5094347;28;20026;-81
2022/07/14 09:50:57;;;;;;;0.00;0.00;;;;;;;25.10;42.65;102145.50;5094762;28;20067;-81
2022/07/14 09:53:32;;;;;;;0.10;0.10;;;;;;;25.15;42.28;102146.09;5094647;28;20072;-81
2022/07/14 09:58:44;;;;;;;0.10;0.10;;;;;;;25.31;41.83;102135.16;5114363;27;20915;-81
2022/07/14 10:01:14;;;;;;;0.25;0.25;;;;;;;25.33;41.95;102141.34;5109082;28;20028;-81
2022/07/14 10:03:44;;;;;;;0.00;0.00;;;;;;;25.41;41.16;102144.50;5113238;28;20124;-81
2022/07/14 10:06:11;;;;;;;0.00;0.00;;;;;;;25.52;41.14;102138.38;5121518;28;20032;-80
2022/07/14 10:08:43;;;;;;;0.08;0.08;;;;;;;25.69;40.82;102140.03;5096423;28;20032;-80
2022/07/14 10:11:11;;;;;;;0.00;0.00;;;;;;;25.73;40.83;102141.56;5113199;28;20028;-80
2022/07/14 10:13:39;;;;;;;0.00;0.00;;;;;;;25.83;41.15;102141.88;5113382;28;20030;-81
2022/07/14 10:16:09;;;;;;;0.00;0.00;;;;;;;25.87;40.46;102143.44;5113300;28;20028;-81
2022/07/14 10:18:42;;;;;;;0.10;0.10;;;;;;;25.92;40.84;102134.97;5103439;28;20040;-81
2022/07/14 10:21:10;;;;;;;0.00;0.00;;;;;;;25.90;40.07;102137.78;5111835;28;20028;-81
2022/07/14 10:23:38;;;;;;;0.35;0.35;;;;;;;25.95;38.18;102145.63;5107902;28;20089;-81
2022/07/14 10:26:08;;;;;;;0.10;0.10;;;;;;;25.97;40.53;102144.56;5099125;28;20567;-80
2022/07/14 10:28:35;;;;;;;0.00;0.00;;;;;;;26.02;40.54;102144.28;5112884;28;20024;-81
2022/07/14 10:31:27;;;;;;;0.10;0.10;;;;;;;26.15;40.01;102139.78;5113150;28;20220;-82
2022/07/14 10:34:03;;;;;;;;;;;;;;;26.34;40.13;102135.00;5112939;28;20051;-81
2022/07/14 10:37:00;;;;;;;0.00;0.00;;;;;;;26.35;37.99;102136.75;5108809;28;19974;-81
2022/07/14 10:42:15;;;;;;;0.10;0.10;;;;;;;26.67;38.94;102136.41;5112999;27;1369056;-80
2022/07/14 10:44:46;;;;;;;0.00;0.00;;;;;;;26.92;39.18;102127.50;5112983;27;20106;-84
2022/07/14 10:47:15;;;;;;;0.00;0.00;;;;;;;27.07;38.04;102134.56;5103082;28;20040;-81
2022/07/14 10:50:09;;;;;;;0.00;0.00;;;;;;;27.43;39.07;102127.53;5112648;28;20031;-81
2022/07/14 10:52:38;;;;;;;0.00;0.00;;;;;;;27.57;38.39;102131.13;5112316;28;20074;-81
2022/07/14 11:06:15;;;;;;;0.05;0.05;;;;;;;28.39;37.14;102117.81;5093680;27;1877637;-81
2022/07/14 11:08:44;;;;;;;0.10;0.10;;;;;;;28.33;36.06;102126.44;5131978;28;20092;-81
2022/07/14 11:11:25;;;;;;;0.13;0.13;;;;;;;28.47;36.74;102121.81;5133256;28;20023;-82
2022/07/14 11:14:10;;;;;;;0.40;0.40;;;;;;;28.48;33.96;102109.94;5120447;28;20489;-81
2022/07/14 11:22:21;;;;;;;0.10;0.10;;;;;;;28.35;32.77;102121.78;5111067;27;20351;-80
2022/07/14 11:24:54;;;;;;;0.00;0.00;;;;;;;28.20;32.79;102122.91;5092644;28;20374;-81
2022/07/14 11:30:27;;;;;;;0.10;0.10;;;;;;;28.03;33.80;102116.84;5136076;27;20395;-80
2022/07/14 11:33:11;;;;;;;0.10;0.10;;;;;;;27.96;32.81;102107.38;5133521;27;20094;-81
2022/07/14 11:38:28;;;;;;;0.15;0.15;;;;;;;27.90;32.82;102119.63;5132096;27;20089;-80
2022/07/14 11:40:55;;;;;;;0.08;0.08;;;;;;;28.01;33.90;102107.91;5130982;27;20400;-80
2022/07/14 11:46:09;;;;;;;0.10;0.10;;;;;;;27.97;33.85;102116.44;5113801;27;20387;-80
2022/07/14 11:48:38;;;;;;;0.30;0.30;;;;;;;28.06;33.65;102115.78;5113199;28;20031;-80
2022/07/14 11:53:40;;;;;;;0.00;0.00;;;;;;;28.16;32.79;102119.53;5093600;27;20370;-82
2022/07/14 11:56:08;;;;;;;0.10;0.10;;;;;;;28.13;32.98;102122.50;5093354;28;20561;-79
2022/07/14 11:58:35;;;;;;;0.00;0.00;;;;;;;27.90;33.07;102121.44;5094253;28;20028;-80
2022/07/14 12:01:03;;;;;;;0.00;0.00;;;;;;;27.70;34.16;102123.81;5106743;28;20028;-80
2022/07/14 12:03:29;;;;;;;0.10;0.10;;;;;;;27.42;35.01;102133.94;5089141;28;20031;-81
2022/07/14 12:05:59;;;;;;;0.10;0.10;;;;;;;27.30;35.74;102137.50;5105660;28;20028;-81
2022/07/14 12:11:11;;;;;;;0.10;0.10;;;;;;;26.82;34.72;102139.94;5110702;27;20408;-79
2022/07/14 12:13:47;;;;;;;0.00;0.00;;;;;;;26.90;35.11;102141.16;5094713;28;20090;-80
2022/07/14 12:16:13;;;;;;;0.10;0.10;;;;;;;26.88;34.92;102145.84;5093760;28;20034;-79
2022/07/14 12:18:40;;;;;;;0.00;0.00;;;;;;;27.05;34.91;102132.94;5091969;28;20028;-81
2022/07/14 12:21:09;;;;;;;0.00;0.00;;;;;;;26.96;34.85;102129.88;5091846;28;20405;-80